Time;durP1;ratioP1;P1;durP2;ratioP2;P2;SDS_P1;SDS_P2;PMS_P1;PMS_P2;Temp;Humidity;BMP_temperature;BMP_pressure;BME280_temperature;BME280_humidity;BME280_pressure;Samples;Min_cycle;Max_cycle;Signal;HPM_P1;HPM_P2
2022/12/12 00:02:11;;;;;;;23.70;12.10;;;;;;;0.91;84.37;100630.38;5052744;28;20813;-60
2022/12/12 00:04:36;;;;;;;23.63;12.73;;;;;;;0.90;84.60;100630.31;5050978;28;20082;-60
2022/12/12 00:07:01;;;;;;;22.27;12.38;;;;;;;0.89;84.35;100639.63;5049812;28;20781;-60
2022/12/12 00:09:27;;;;;;;25.45;11.70;;;;;;;0.89;84.48;100637.06;5052081;28;20044;-60
2022/12/12 00:11:52;;;;;;;22.70;13.35;;;;;;;0.88;84.35;100643.00;5053959;28;20615;-60
2022/12/12 00:14:18;;;;;;;23.85;11.32;;;;;;;0.89;84.32;100642.16;5046521;28;20048;-60
2022/12/12 00:16:43;;;;;;;19.90;10.65;;;;;;;0.90;84.36;100637.94;5053530;28;20047;-59
2022/12/12 00:19:09;;;;;;;22.98;11.20;;;;;;;0.91;83.93;100645.63;5053555;28;20511;-59
2022/12/12 00:21:34;;;;;;;21.00;10.90;;;;;;;0.89;83.75;100649.78;5054362;28;20048;-59
2022/12/12 00:24:00;;;;;;;21.60;11.95;;;;;;;0.90;83.90;100641.34;5054816;28;20036;-60
2022/12/12 00:26:32;;;;;;;24.92;13.15;;;;;;;0.92;83.24;100646.47;5051421;28;20049;-61
2022/12/12 00:28:58;;;;;;;23.92;12.40;;;;;;;0.88;83.43;100650.63;5054110;28;20700;-60
2022/12/12 00:31:25;;;;;;;25.60;12.52;;;;;;;0.85;83.51;100650.56;5052805;28;20040;-63
2022/12/12 00:33:50;;;;;;;25.08;12.40;;;;;;;0.86;83.58;100651.38;5051232;28;20052;-59
2022/12/12 00:36:22;;;;;;;22.65;11.77;;;;;;;0.84;83.33;100650.50;5045949;28;20028;-59
2022/12/12 00:38:48;;;;;;;20.15;10.30;;;;;;;0.82;83.15;100654.69;5057134;28;20653;-61
2022/12/12 00:41:14;;;;;;;20.98;11.45;;;;;;;0.80;83.07;100661.38;5052686;28;20049;-59
2022/12/12 00:43:40;;;;;;;25.02;12.55;;;;;;;0.71;82.93;100651.81;5047341;28;20035;-59
2022/12/12 00:46:05;;;;;;;20.00;10.55;;;;;;;0.73;82.77;100655.28;5049392;28;20574;-59
2022/12/12 00:48:31;;;;;;;18.63;10.68;;;;;;;0.67;82.00;100662.72;5042454;28;20516;-59
2022/12/12 00:51:03;;;;;;;19.15;10.07;;;;;;;0.66;81.61;100659.31;5054230;28;20306;-59
2022/12/12 00:53:29;;;;;;;21.30;11.02;;;;;;;0.64;81.87;100666.06;5054747;28;20056;-60
2022/12/12 00:55:58;;;;;;;22.70;11.55;;;;;;;0.63;81.78;100661.78;5049918;28;20036;-63
2022/12/12 00:58:24;;;;;;;19.90;9.70;;;;;;;0.65;81.94;100669.44;5041716;28;20107;-59
2022/12/12 01:00:51;;;;;;;15.68;9.18;;;;;;;0.63;81.21;100659.22;5035023;28;20410;-59
2022/12/12 01:03:16;;;;;;;21.52;10.88;;;;;;;0.60;80.78;100669.31;5035231;28;20029;-59
2022/12/12 01:05:42;;;;;;;20.17;10.60;;;;;;;0.58;81.00;100667.53;5029971;28;20025;-59
2022/12/12 01:08:07;;;;;;;23.77;10.32;;;;;;;0.59;80.89;100666.72;5036474;28;20124;-59
2022/12/12 01:10:33;;;;;;;21.15;10.75;;;;;;;0.57;80.99;100671.75;5034052;28;20040;-59
2022/12/12 01:12:58;;;;;;;23.23;10.57;;;;;;;0.58;81.11;100672.63;5033924;28;21334;-59
2022/12/12 01:15:25;;;;;;;20.33;10.07;;;;;;;0.57;80.66;100671.75;5036370;28;20075;-59
2022/12/12 01:17:51;;;;;;;21.63;9.93;;;;;;;0.57;81.31;100673.44;5039596;28;20028;-59
2022/12/12 01:20:22;;;;;;;20.52;9.65;;;;;;;0.58;81.05;100678.59;5034158;28;20069;-59
2022/12/12 01:22:48;;;;;;;19.10;10.82;;;;;;;0.58;81.15;100686.22;5036716;28;20051;-59
2022/12/12 01:25:15;;;;;;;24.40;10.65;;;;;;;0.56;80.84;100679.34;5039113;28;20045;-59
2022/12/12 01:27:40;;;;;;;18.73;9.50;;;;;;;0.58;80.43;100693.84;5037094;28;20098;-64
2022/12/12 01:30:07;;;;;;;22.35;11.30;;;;;;;0.58;80.95;100688.75;5032816;28;20068;-64
2022/12/12 01:32:32;;;;;;;20.17;10.18;;;;;;;0.59;81.11;100694.69;5058011;28;20040;-59
2022/12/12 01:34:58;;;;;;;21.10;9.95;;;;;;;0.60;81.27;100702.38;5053463;28;20052;-59
2022/12/12 01:37:23;;;;;;;19.40;9.32;;;;;;;0.61;81.24;100700.69;5056426;28;20112;-59
2022/12/12 01:39:49;;;;;;;19.95;9.70;;;;;;;0.61;80.76;100701.56;5059791;28;20296;-59
2022/12/12 01:42:17;;;;;;;21.20;11.18;;;;;;;0.64;81.36;100691.50;5051805;28;20634;-59
2022/12/12 01:44:43;;;;;;;18.42;9.45;;;;;;;0.65;81.23;100700.81;5050583;28;20059;-59
2022/12/12 01:47:10;;;;;;;22.70;9.98;;;;;;;0.65;81.55;100699.97;5054585;28;20472;-59
2022/12/12 01:49:36;;;;;;;20.77;9.60;;;;;;;0.63;81.05;100699.91;5055893;28;20517;-65
2022/12/12 01:52:19;;;;;;;21.38;10.02;;;;;;;0.62;81.23;100702.41;5059259;28;20151;-66
2022/12/12 01:54:50;;;;;;;19.63;10.30;;;;;;;0.59;80.89;100703.19;5059176;28;20069;-65
2022/12/12 01:57:25;;;;;;;19.10;10.55;;;;;;;0.55;80.64;100701.38;5058272;28;20024;-65
2022/12/12 01:59:50;;;;;;;;;;;;;;;0.55;80.65;100708.16;5058252;28;20093;-65
2022/12/12 02:02:16;;;;;;;19.52;9.02;;;;;;;0.55;80.46;100703.94;5057193;28;19920;-65
2022/12/12 02:04:42;;;;;;;18.98;9.43;;;;;;;0.54;80.55;100706.41;5053625;28;20039;-65
2022/12/12 02:07:07;;;;;;;20.23;10.07;;;;;;;0.53;80.56;100707.22;5055982;28;20032;-66
2022/12/12 02:09:34;;;;;;;21.98;10.10;;;;;;;0.51;80.48;100711.41;5056526;28;20040;-65
2022/12/12 02:12:00;;;;;;;22.08;10.82;;;;;;;0.51;80.92;100709.72;5052420;28;20132;-62
2022/12/12 02:14:37;;;;;;;20.48;10.85;;;;;;;0.51;80.44;100713.94;5054140;28;20036;-65
2022/12/12 02:17:26;;;;;;;19.02;9.07;;;;;;;0.49;80.60;100716.44;5057907;28;20051;-65
2022/12/12 02:20:13;;;;;;;22.17;10.57;;;;;;;0.47;80.50;100712.97;5053613;28;20483;-65
2022/12/12 02:23:00;;;;;;;18.73;9.90;;;;;;;0.38;80.37;100717.78;5056555;28;20046;-65
2022/12/12 02:25:44;;;;;;;17.23;8.77;;;;;;;0.38;80.19;100716.94;5055052;28;20601;-65
2022/12/12 02:28:13;;;;;;;23.05;10.07;;;;;;;0.32;80.24;100714.19;5052287;28;20055;-60
2022/12/12 02:31:00;;;;;;;18.58;9.40;;;;;;;0.28;80.80;100710.69;5057156;28;20036;-59
2022/12/12 02:34:02;;;;;;;24.38;9.95;;;;;;;0.25;80.54;100709.72;5057958;28;20074;-59
2022/12/12 02:36:34;;;;;;;23.38;9.95;;;;;;;0.23;80.48;100707.16;5053243;28;20114;-60
2022/12/12 02:39:15;;;;;;;18.75;8.95;;;;;;;0.22;80.28;100710.50;5058038;28;20032;-65
2022/12/12 02:41:46;;;;;;;18.60;9.52;;;;;;;0.22;80.30;100709.63;5054151;28;20064;-65
2022/12/12 02:44:41;;;;;;;19.45;9.50;;;;;;;0.20;80.33;100707.06;5048637;28;20036;-65
2022/12/12 02:47:10;;;;;;;23.10;10.88;;;;;;;0.22;80.60;100713.03;5055517;28;20043;-65
2022/12/12 02:49:43;;;;;;;15.15;8.23;;;;;;;0.21;80.46;100710.44;5031884;28;20048;-65
2022/12/12 02:52:10;;;;;;;20.45;9.45;;;;;;;0.21;80.41;100705.34;5035484;28;20039;-59
2022/12/12 02:54:35;;;;;;;17.92;8.80;;;;;;;0.18;80.22;100707.00;5035674;28;20545;-58
2022/12/12 02:57:02;;;;;;;18.95;8.68;;;;;;;0.16;80.53;100706.09;5027262;28;20061;-59
2022/12/12 02:59:39;;;;;;;16.15;8.50;;;;;;;0.16;80.09;100706.09;5049971;28;20659;-59
2022/12/12 03:02:31;;;;;;;16.90;7.78;;;;;;;0.14;80.20;100704.31;5059750;28;20039;-59
2022/12/12 03:08:14;;;;;;;16.98;8.52;;;;;;;0.13;80.13;100707.66;5059527;28;20067;-59
2022/12/12 03:10:58;;;;;;;16.77;8.82;;;;;;;0.10;80.52;100703.34;5053413;28;20033;-59
2022/12/12 03:13:26;;;;;;;20.52;9.07;;;;;;;0.06;80.57;100708.25;5056980;28;20040;-60
2022/12/12 03:16:02;;;;;;;17.80;8.98;;;;;;;0.02;80.44;100709.84;5059444;28;20127;-59
2022/12/12 03:18:31;;;;;;;19.67;8.82;;;;;;;-0.02;80.08;100713.09;5058948;28;20805;-59
2022/12/12 03:21:22;;;;;;;19.55;9.07;;;;;;;-0.05;80.29;100715.53;5054951;28;20032;-59
2022/12/12 03:23:52;;;;;;;19.85;8.65;;;;;;;-0.06;80.21;100711.25;5059232;28;20099;-64
2022/12/12 03:26:26;;;;;;;20.80;8.68;;;;;;;-0.08;80.70;100717.13;5056288;28;20498;-64
2022/12/12 03:28:57;;;;;;;17.35;8.77;;;;;;;-0.09;80.45;100710.28;5056313;28;20036;-60
2022/12/12 03:31:27;;;;;;;18.80;9.50;;;;;;;-0.13;80.37;100706.81;5049592;28;20028;-59
2022/12/12 03:33:57;;;;;;;19.70;9.95;;;;;;;-0.15;80.87;100705.00;5060506;28;20040;-60
2022/12/12 03:36:36;;;;;;;19.25;10.07;;;;;;;-0.17;80.94;100709.19;5059295;28;20040;-64
2022/12/12 03:39:08;;;;;;;20.27;9.20;;;;;;;-0.19;80.56;100716.78;5059100;28;20040;-64
2022/12/12 03:41:38;;;;;;;19.73;9.00;;;;;;;-0.19;80.77;100723.53;5060196;28;20032;-64
2022/12/12 03:44:16;;;;;;;23.33;10.27;;;;;;;-0.19;80.75;100718.44;5058646;28;20040;-64
2022/12/12 03:47:04;;;;;;;19.30;9.05;;;;;;;-0.21;80.65;100713.28;5056165;28;20064;-64
2022/12/12 03:49:59;;;;;;;20.05;9.32;;;;;;;-0.22;80.85;100716.66;5052830;28;20052;-64
2022/12/12 03:52:30;;;;;;;17.83;9.77;;;;;;;-0.22;81.24;100720.88;5046941;28;20040;-59
2022/12/12 03:55:00;;;;;;;19.48;9.80;;;;;;;-0.24;81.35;100723.34;5050066;28;20048;-59
2022/12/12 03:57:37;;;;;;;18.45;9.55;;;;;;;-0.22;81.08;100731.03;5039608;28;20036;-59
2022/12/12 04:00:12;;;;;;;22.38;9.40;;;;;;;-0.23;81.57;100725.09;5074717;28;20040;-59
2022/12/12 04:02:55;;;;;;;22.63;10.60;;;;;;;-0.22;81.54;100731.03;5031378;28;20029;-59
2022/12/12 04:05:36;;;;;;;18.80;9.48;;;;;;;-0.23;81.47;100734.38;5026161;28;20041;-59
2022/12/12 04:08:03;;;;;;;16.45;8.80;;;;;;;-0.23;81.63;100730.16;5034971;28;20033;-60
2022/12/12 04:14:09;;;;;;;18.88;8.52;;;;;;;-0.24;82.17;100730.09;5031429;28;20107;-59
2022/12/12 04:16:40;;;;;;;20.88;9.32;;;;;;;-0.26;82.22;100729.19;5047714;28;20033;-60
2022/12/12 04:23:13;;;;;;;21.10;10.10;;;;;;;-0.29;81.64;100732.50;5049741;28;21280;-65
2022/12/12 04:25:10;;;;;;;20.60;9.98;;;;;;;-0.38;81.93;100729.63;5050658;28;20047;-66
2022/12/12 04:27:38;;;;;;;16.38;8.30;;;;;;;-0.43;82.01;100729.50;5051702;28;20044;-66
2022/12/12 04:30:05;;;;;;;22.17;9.70;;;;;;;-0.47;81.97;100724.25;5055535;28;20425;-66
2022/12/12 04:32:42;;;;;;;21.35;10.07;;;;;;;-0.50;82.82;100731.75;5055718;28;20262;-66
2022/12/12 04:35:16;;;;;;;20.23;9.52;;;;;;;-0.54;82.47;100735.84;5056225;28;20115;-66
2022/12/12 04:37:47;;;;;;;21.77;10.50;;;;;;;-0.57;82.53;100738.28;5054906;28;20075;-66
2022/12/12 04:40:19;;;;;;;17.90;8.93;;;;;;;-0.59;83.28;100744.13;5051637;28;20048;-68
2022/12/12 04:42:51;;;;;;;17.45;9.02;;;;;;;-0.63;83.44;100744.84;5055342;28;20464;-70
2022/12/12 04:45:24;;;;;;;16.77;8.85;;;;;;;-0.65;83.33;100746.44;5052143;28;20032;-66
2022/12/12 04:47:52;;;;;;;20.08;8.35;;;;;;;-0.65;83.82;100756.59;5054066;28;20082;-66
2022/12/12 04:50:20;;;;;;;14.60;7.50;;;;;;;-0.67;83.71;100750.59;5047582;28;20078;-66
2022/12/12 04:52:47;;;;;;;21.48;10.05;;;;;;;-0.67;83.68;100754.00;5056186;28;20174;-66
2022/12/12 04:55:20;;;;;;;18.02;8.45;;;;;;;-0.64;84.03;100751.59;5057432;28;20157;-66
2022/12/12 04:57:53;;;;;;;21.60;10.25;;;;;;;-0.63;83.92;100752.44;5053084;28;20064;-60
2022/12/12 05:00:20;;;;;;;21.73;8.77;;;;;;;-0.62;84.15;100755.03;5054102;28;20056;-59
2022/12/12 05:02:53;;;;;;;19.02;9.20;;;;;;;-0.59;83.81;100750.06;5060075;28;20136;-59
2022/12/12 05:05:25;;;;;;;18.95;10.15;;;;;;;-0.55;83.86;100758.66;5053794;28;20270;-60
2022/12/12 05:08:01;;;;;;;22.23;10.38;;;;;;;-0.51;84.00;100763.88;5055648;28;20040;-60
2022/12/12 05:10:27;;;;;;;21.00;11.05;;;;;;;-0.48;84.33;100768.19;5056785;28;20044;-60
2022/12/12 05:12:59;;;;;;;22.00;9.80;;;;;;;-0.44;84.06;100764.97;5052803;28;20406;-60
2022/12/12 05:15:26;;;;;;;17.98;8.48;;;;;;;-0.41;83.66;100763.41;5050307;28;20118;-60
2022/12/12 05:18:02;;;;;;;19.23;9.30;;;;;;;-0.38;83.33;100758.44;5051284;28;20028;-60
2022/12/12 05:20:27;;;;;;;21.45;9.55;;;;;;;-0.34;83.58;100764.50;5057036;28;20071;-60
2022/12/12 05:22:52;;;;;;;24.45;11.75;;;;;;;-0.32;82.91;100767.06;5056357;28;20267;-59
2022/12/12 05:25:18;;;;;;;20.10;10.07;;;;;;;-0.30;83.24;100765.47;5054187;28;20763;-59
2022/12/12 05:27:43;;;;;;;22.13;11.18;;;;;;;-0.27;82.92;100768.97;5040208;28;20377;-59
2022/12/12 05:30:09;;;;;;;19.38;9.55;;;;;;;-0.27;82.87;100771.50;5056567;28;20678;-59
2022/12/12 05:32:35;;;;;;;19.33;8.80;;;;;;;-0.25;82.90;100766.50;5055323;28;20024;-60
2022/12/12 05:35:01;;;;;;;19.17;9.20;;;;;;;-0.25;82.46;100769.03;5054340;28;20048;-60
2022/12/12 05:37:26;;;;;;;17.00;8.82;;;;;;;-0.23;82.21;100769.94;5050984;28;20141;-60
2022/12/12 05:39:52;;;;;;;18.55;9.25;;;;;;;-0.24;82.26;100769.06;5043684;28;20063;-59
2022/12/12 05:42:17;;;;;;;21.83;9.48;;;;;;;-0.25;82.51;100769.91;5035669;28;20532;-60
2022/12/12 05:44:43;;;;;;;21.70;9.32;;;;;;;-0.26;82.42;100765.63;5032800;28;20071;-59
2022/12/12 05:47:08;;;;;;;19.30;9.50;;;;;;;-0.26;82.82;100769.81;5052161;28;20441;-59
2022/12/12 05:49:34;;;;;;;17.40;9.90;;;;;;;-0.28;82.67;100763.84;5055524;28;20516;-60
2022/12/12 05:51:59;;;;;;;17.50;9.00;;;;;;;-0.28;82.58;100767.25;5054439;28;20040;-60
2022/12/12 05:54:25;;;;;;;22.90;10.05;;;;;;;-0.28;82.20;100772.31;5053816;28;20032;-60
2022/12/12 05:56:50;;;;;;;19.13;9.82;;;;;;;-0.29;82.83;100774.78;5050387;28;20654;-60
2022/12/12 05:59:16;;;;;;;17.27;8.80;;;;;;;-0.31;82.01;100773.88;5053912;28;20456;-60
2022/12/12 06:01:41;;;;;;;21.08;9.65;;;;;;;-0.33;82.35;100772.97;5052256;28;20044;-60
2022/12/12 06:04:06;;;;;;;18.23;8.77;;;;;;;-0.35;82.35;100777.13;5043008;28;20844;-60
2022/12/12 06:06:32;;;;;;;18.38;9.68;;;;;;;-0.38;82.47;100776.22;5031241;28;20024;-60
2022/12/12 06:08:57;;;;;;;18.45;9.55;;;;;;;-0.38;82.91;100786.38;5054163;28;20048;-60
2022/12/12 06:11:23;;;;;;;19.88;9.75;;;;;;;-0.39;82.67;100776.16;5048537;28;20037;-60
2022/12/12 06:13:48;;;;;;;24.08;10.27;;;;;;;-0.38;82.83;100780.41;5034837;28;20749;-60
2022/12/12 06:16:16;;;;;;;20.93;10.47;;;;;;;-0.40;82.45;100776.97;5033083;28;20124;-60
2022/12/12 06:18:41;;;;;;;19.35;9.93;;;;;;;-0.42;82.68;100789.59;5035655;28;20617;-60
2022/12/12 06:21:09;;;;;;;19.05;9.68;;;;;;;-0.43;82.90;100789.56;5031091;28;20120;-61
2022/12/12 06:23:41;;;;;;;22.35;10.27;;;;;;;-0.43;82.74;100787.03;5033728;28;20060;-60
2022/12/12 06:26:09;;;;;;;18.45;9.73;;;;;;;-0.44;82.40;100788.69;5049563;28;20480;-63
2022/12/12 06:28:36;;;;;;;22.48;11.18;;;;;;;-0.43;82.77;100790.44;5041577;28;20037;-60
2022/12/12 06:31:02;;;;;;;23.15;11.00;;;;;;;-0.43;82.94;100794.63;5038021;28;20455;-61
2022/12/12 06:33:27;;;;;;;23.40;11.35;;;;;;;-0.42;82.65;100788.72;5052847;28;20033;-61
2022/12/12 06:36:01;;;;;;;18.25;9.85;;;;;;;-0.44;83.50;100787.81;5050013;28;20521;-60
2022/12/12 06:38:26;;;;;;;24.65;11.70;;;;;;;-0.46;82.71;100782.69;5055620;28;20080;-61
2022/12/12 06:40:52;;;;;;;21.52;9.82;;;;;;;-0.45;82.94;100788.63;5052824;28;20040;-66
2022/12/12 06:43:17;;;;;;;17.85;9.73;;;;;;;-0.48;83.53;100784.31;5055897;28;20037;-66
2022/12/12 06:45:43;;;;;;;20.08;9.60;;;;;;;-0.45;82.98;100789.50;5055483;28;20040;-66
2022/12/12 06:48:08;;;;;;;22.13;10.88;;;;;;;-0.47;82.46;100790.25;5053472;28;20028;-65
2022/12/12 06:50:33;;;;;;;18.70;9.77;;;;;;;-0.48;82.34;100791.91;5049993;28;20040;-66
2022/12/12 06:52:59;;;;;;;22.67;9.77;;;;;;;-0.46;82.79;100794.53;5053615;28;20043;-66
2022/12/12 06:55:24;;;;;;;23.00;10.20;;;;;;;-0.46;82.37;100797.06;5056304;28;20036;-68
2022/12/12 06:57:49;;;;;;;22.52;10.90;;;;;;;-0.45;83.37;100806.38;5054475;28;20041;-66
2022/12/12 07:00:15;;;;;;;26.27;11.98;;;;;;;-0.45;82.92;100799.66;5050925;28;20086;-64
2022/12/12 07:02:41;;;;;;;22.63;10.82;;;;;;;-0.44;82.42;100803.06;5054810;28;20067;-65
2022/12/12 07:05:06;;;;;;;20.58;9.88;;;;;;;-0.43;82.14;100808.19;5049802;28;20689;-65
2022/12/12 07:07:32;;;;;;;21.52;9.77;;;;;;;-0.40;82.69;100807.44;5051411;28;20054;-65
2022/12/12 07:09:57;;;;;;;17.88;9.65;;;;;;;-0.39;82.02;100804.94;5053810;28;20040;-65
2022/12/12 07:12:23;;;;;;;22.15;10.35;;;;;;;-0.37;81.76;100817.72;5052951;28;20044;-64
2022/12/12 07:14:48;;;;;;;23.30;9.65;;;;;;;-0.36;82.06;100823.66;5053573;28;20068;-65
2022/12/12 07:17:14;;;;;;;20.77;9.63;;;;;;;-0.41;81.47;100816.72;5056138;28;20574;-65
2022/12/12 07:19:39;;;;;;;20.02;9.45;;;;;;;-0.40;81.23;100815.06;5051900;28;20040;-65
2022/12/12 07:22:04;;;;;;;22.60;10.18;;;;;;;-0.40;81.23;100815.06;5051142;28;20032;-65
2022/12/12 07:24:30;;;;;;;19.48;9.63;;;;;;;-0.40;81.57;100817.59;5051983;28;20040;-65
2022/12/12 07:26:55;;;;;;;18.65;8.88;;;;;;;-0.42;80.97;100820.06;5056485;28;20051;-65
2022/12/12 07:29:21;;;;;;;22.90;9.32;;;;;;;-0.46;81.16;100819.91;5055570;28;20032;-65
2022/12/12 07:31:46;;;;;;;21.40;10.15;;;;;;;-0.46;81.01;100825.00;5053949;28;20835;-65
2022/12/12 07:34:11;;;;;;;18.42;9.30;;;;;;;-0.46;81.04;100830.06;5043856;28;20036;-65
2022/12/12 07:36:37;;;;;;;20.70;9.80;;;;;;;-0.47;81.59;100826.66;5033975;28;20088;-65
2022/12/12 07:39:03;;;;;;;18.48;9.35;;;;;;;-0.45;81.22;100829.25;5029081;28;20108;-64
2022/12/12 07:41:28;;;;;;;17.83;8.95;;;;;;;-0.45;80.99;100822.50;5055013;28;20123;-65
2022/12/12 07:43:54;;;;;;;19.58;9.35;;;;;;;-0.45;81.25;100826.69;5050376;28;20048;-65
2022/12/12 07:46:22;;;;;;;19.63;8.10;;;;;;;-0.47;81.29;100829.19;5055145;28;20804;-66
2022/12/12 07:48:48;;;;;;;21.00;9.98;;;;;;;-0.46;81.48;100837.69;5054722;28;20040;-65
2022/12/12 07:51:14;;;;;;;21.20;9.77;;;;;;;-0.47;81.71;100841.91;5051124;28;20060;-65
2022/12/12 07:53:40;;;;;;;17.33;7.90;;;;;;;-0.45;81.57;100834.31;5049727;28;20016;-65
2022/12/12 07:56:07;;;;;;;20.25;9.20;;;;;;;-0.45;81.53;100837.72;5048803;28;20032;-65
2022/12/12 07:58:34;;;;;;;28.30;10.10;;;;;;;-0.42;81.52;100836.97;5036021;28;20140;-64
2022/12/12 08:00:59;;;;;;;22.23;9.85;;;;;;;-0.43;81.67;100837.81;5034928;28;20810;-65
2022/12/12 08:03:25;;;;;;;22.75;9.98;;;;;;;-0.43;80.91;100843.75;5055775;28;20028;-64
2022/12/12 08:05:50;;;;;;;20.25;10.10;;;;;;;-0.43;80.82;100841.22;5063176;28;20027;-66
2022/12/12 08:08:15;;;;;;;23.42;9.65;;;;;;;-0.39;80.41;100840.50;5056741;28;20037;-66
2022/12/12 08:10:41;;;;;;;22.50;10.07;;;;;;;-0.36;80.51;100839.72;5038065;28;20045;-65
2022/12/12 08:13:07;;;;;;;19.25;9.30;;;;;;;-0.32;80.54;100840.72;5032869;28;20564;-65
2022/12/12 08:15:33;;;;;;;20.25;9.68;;;;;;;-0.31;80.93;100845.00;5026311;28;20113;-67
2022/12/12 08:17:58;;;;;;;20.48;9.98;;;;;;;-0.30;80.67;100852.66;5034334;28;20044;-67
2022/12/12 08:20:23;;;;;;;18.98;9.48;;;;;;;-0.31;80.77;100843.31;5033916;28;20139;-67
2022/12/12 08:22:49;;;;;;;20.80;9.70;;;;;;;-0.27;81.10;100849.38;5031677;28;20481;-60
2022/12/12 08:25:14;;;;;;;22.92;10.63;;;;;;;-0.25;80.38;100851.16;5034455;28;20037;-60
2022/12/12 08:27:40;;;;;;;17.88;9.55;;;;;;;-0.24;80.42;100849.47;5034221;28;20067;-61
2022/12/12 08:30:07;;;;;;;20.35;10.60;;;;;;;-0.24;80.01;100845.25;5035548;28;20089;-60
2022/12/12 08:32:32;;;;;;;19.27;9.00;;;;;;;-0.26;80.25;100848.56;5033208;28;20021;-62
2022/12/12 08:34:58;;;;;;;20.00;9.63;;;;;;;-0.32;80.14;100849.19;5034336;28;20033;-65
2022/12/12 08:37:24;;;;;;;19.65;9.27;;;;;;;-0.39;80.39;100848.09;5033379;28;20133;-65
2022/12/12 08:39:49;;;;;;;20.77;9.20;;;;;;;-0.45;80.95;100847.88;5033931;28;20045;-65
2022/12/12 08:42:15;;;;;;;19.48;9.82;;;;;;;-0.50;81.10;100851.06;5034654;28;20033;-64
2022/12/12 08:44:40;;;;;;;23.27;10.48;;;;;;;-0.56;81.35;100858.47;5032932;28;20079;-66
2022/12/12 08:47:06;;;;;;;18.77;9.18;;;;;;;-0.60;81.29;100862.53;5031672;28;20040;-64
2022/12/12 08:49:31;;;;;;;23.35;10.93;;;;;;;-0.63;81.96;100867.50;5033380;28;20140;-66
2022/12/12 08:51:57;;;;;;;21.20;9.95;;;;;;;-0.65;82.22;100866.59;5032437;28;20041;-65
2022/12/12 08:54:24;;;;;;;23.60;10.45;;;;;;;-0.66;82.16;100869.94;5033535;28;20033;-60
2022/12/12 08:56:50;;;;;;;24.55;10.90;;;;;;;-0.66;82.37;100869.94;5036913;28;20025;-60
2022/12/12 08:59:15;;;;;;;17.75;9.35;;;;;;;-0.66;82.63;100866.56;5049703;28;20556;-62
2022/12/12 09:01:41;;;;;;;21.92;10.25;;;;;;;-0.66;82.29;100874.16;5052575;28;20043;-59
2022/12/12 09:04:06;;;;;;;21.48;11.13;;;;;;;-0.65;82.58;100870.81;5055213;28;20028;-60
2022/12/12 09:06:32;;;;;;;20.70;10.10;;;;;;;-0.63;82.01;100877.66;5053326;28;20124;-59
2022/12/12 09:08:58;;;;;;;23.92;10.55;;;;;;;-0.58;82.48;100872.78;5050602;28;20032;-59
2022/12/12 09:11:23;;;;;;;18.23;9.27;;;;;;;-0.55;81.66;100880.50;5046270;28;20041;-59
2022/12/12 09:13:49;;;;;;;23.17;9.32;;;;;;;-0.50;81.28;100890.03;5047882;28;20745;-60
2022/12/12 09:16:15;;;;;;;19.20;8.80;;;;;;;-0.46;81.80;100881.72;5047427;28;20040;-61
2022/12/12 09:18:41;;;;;;;21.27;9.88;;;;;;;-0.43;81.40;100889.44;5051829;28;20052;-64
2022/12/12 09:21:06;;;;;;;18.73;9.40;;;;;;;-0.42;80.78;100888.63;5052677;28;20037;-60
2022/12/12 09:23:32;;;;;;;22.83;10.80;;;;;;;-0.41;80.94;100887.81;5051004;28;20457;-59
2022/12/12 09:26:02;;;;;;;20.23;10.40;;;;;;;-0.36;80.40;100887.97;5049801;28;20093;-60
2022/12/12 09:28:27;;;;;;;16.85;10.13;;;;;;;-0.35;80.22;100888.84;5054755;28;20553;-59
2022/12/12 09:30:52;;;;;;;24.60;11.05;;;;;;;-0.33;80.63;100893.16;5053304;28;20052;-60
2022/12/12 09:33:18;;;;;;;29.08;11.10;;;;;;;-0.31;80.64;100894.13;5054870;28;20032;-59
2022/12/12 09:35:44;;;;;;;25.33;10.52;;;;;;;-0.30;80.35;100893.28;5047468;28;20047;-59
2022/12/12 09:38:10;;;;;;;20.88;10.27;;;;;;;-0.26;80.34;100891.72;5054797;28;20585;-60
2022/12/12 09:40:48;;;;;;;25.73;10.77;;;;;;;-0.24;80.42;100896.06;5052795;28;20041;-59
2022/12/12 09:43:18;;;;;;;24.20;10.50;;;;;;;-0.23;80.49;100897.78;5051536;28;20045;-59
2022/12/12 09:45:44;;;;;;;21.75;9.80;;;;;;;-0.22;80.30;100899.53;5059344;28;20040;-59
2022/12/12 09:48:18;;;;;;;22.10;11.07;;;;;;;-0.19;79.95;100897.09;5064566;28;20060;-59
2022/12/12 09:50:47;;;;;;;16.23;7.68;;;;;;;-0.12;79.81;100900.72;5060414;28;20044;-59
2022/12/12 09:53:16;;;;;;;19.58;8.88;;;;;;;-0.07;79.41;100911.94;5053126;28;20705;-60
2022/12/12 09:56:04;;;;;;;21.00;9.88;;;;;;;-0.01;79.20;100899.44;5053527;28;20120;-60
2022/12/12 09:58:55;;;;;;;23.20;9.63;;;;;;;0.03;79.09;100896.19;5055910;28;20732;-60
2022/12/12 10:01:27;;;;;;;20.48;10.15;;;;;;;0.06;78.46;100893.75;5055753;28;20124;-60
2022/12/12 10:04:00;;;;;;;25.33;10.32;;;;;;;0.09;78.38;100893.84;5053955;28;20098;-59
2022/12/12 10:06:38;;;;;;;25.10;10.20;;;;;;;0.15;78.93;100894.94;5049785;28;20033;-60
2022/12/12 10:09:23;;;;;;;26.85;10.98;;;;;;;0.21;78.46;100898.50;5053812;28;20045;-60
2022/12/12 10:11:53;;;;;;;24.50;10.33;;;;;;;0.25;78.16;100900.34;5057747;28;20045;-59
2022/12/12 10:14:43;;;;;;;23.40;10.45;;;;;;;0.32;78.32;100895.53;5053338;28;20831;-60
2022/12/12 10:17:37;;;;;;;21.90;10.65;;;;;;;0.38;78.07;100894.91;5054449;28;20040;-61
2022/12/12 10:20:12;;;;;;;21.58;11.27;;;;;;;0.42;78.19;100899.25;5052313;28;20040;-59
2022/12/12 10:22:49;;;;;;;24.92;10.70;;;;;;;0.47;77.49;100890.97;5067375;28;20128;-60
2022/12/12 10:25:42;;;;;;;24.50;9.93;;;;;;;0.54;77.24;100889.50;5054312;28;20033;-59
2022/12/12 10:28:11;;;;;;;21.50;10.10;;;;;;;0.59;77.17;100885.41;5051845;28;20279;-60
2022/12/12 10:30:58;;;;;;;18.60;9.95;;;;;;;0.64;77.34;100889.88;5047522;28;20084;-61
2022/12/12 10:33:36;;;;;;;25.42;12.10;;;;;;;0.70;77.02;100891.75;5049901;28;20032;-61
2022/12/12 10:36:09;;;;;;;25.23;12.07;;;;;;;0.76;76.47;100888.53;5030055;28;20139;-62
2022/12/12 10:38:52;;;;;;;25.67;11.98;;;;;;;0.79;75.68;100886.97;5030575;28;20052;-63
2022/12/12 10:41:31;;;;;;;27.88;11.93;;;;;;;0.83;76.11;100881.13;5029886;28;20037;-62
2022/12/12 10:43:57;;;;;;;28.20;11.52;;;;;;;0.89;75.53;100876.25;5030758;28;20111;-62
2022/12/12 10:47:01;;;;;;;22.23;10.38;;;;;;;0.95;75.71;100868.81;5043326;28;20246;-62
2022/12/12 10:49:28;;;;;;;25.85;11.35;;;;;;;1.01;76.05;100873.22;5041821;28;20199;-62
2022/12/12 10:51:55;;;;;;;25.67;11.23;;;;;;;1.04;75.47;100870.78;5044196;28;20044;-62
2022/12/12 10:54:30;;;;;;;23.23;12.07;;;;;;;1.10;74.96;100868.44;5037094;28;20128;-61
2022/12/12 10:57:23;;;;;;;23.08;10.52;;;;;;;1.15;74.68;100860.09;5034567;28;20036;-60
2022/12/12 10:59:54;;;;;;;25.60;11.10;;;;;;;1.18;74.11;100851.72;5041761;28;20588;-67
2022/12/12 11:02:37;;;;;;;25.60;12.38;;;;;;;1.18;74.09;100852.56;5036819;28;20041;-67
2022/12/12 11:05:05;;;;;;;21.55;10.57;;;;;;;1.23;74.09;100847.63;5027807;28;20037;-66
2022/12/12 11:07:39;;;;;;;26.05;11.68;;;;;;;1.24;74.21;100852.75;5033002;28;20041;-66
2022/12/12 11:10:27;;;;;;;23.27;12.20;;;;;;;1.32;74.38;100852.13;5029197;28;20040;-67
2022/12/12 11:13:15;;;;;;;24.33;11.95;;;;;;;1.37;73.87;100843.81;5043334;28;20052;-68
2022/12/12 11:15:48;;;;;;;31.45;12.25;;;;;;;1.41;73.70;100842.22;5046737;28;20530;-66
2022/12/12 11:18:17;;;;;;;29.23;10.82;;;;;;;1.46;73.22;100845.75;5035898;28;20131;-66
2022/12/12 11:21:04;;;;;;;28.20;11.68;;;;;;;1.51;73.18;100845.06;5049716;28;20047;-66
2022/12/12 11:23:31;;;;;;;24.70;9.93;;;;;;;1.56;72.87;100843.53;5035577;28;20051;-61
2022/12/12 11:26:01;;;;;;;21.33;10.63;;;;;;;1.59;73.56;100842.75;5047580;28;20498;-61
2022/12/12 11:28:32;;;;;;;23.10;10.45;;;;;;;1.63;73.47;100834.34;5049532;28;20638;-61
2022/12/12 11:31:02;;;;;;;19.63;10.35;;;;;;;1.65;73.23;100831.06;5049721;28;20063;-61
2022/12/12 11:33:50;;;;;;;22.77;10.93;;;;;;;1.67;73.13;100829.41;5031979;28;20717;-61
2022/12/12 11:36:17;;;;;;;23.08;11.25;;;;;;;1.70;72.90;100829.50;5026401;28;20029;-61
2022/12/12 11:39:14;;;;;;;20.17;10.02;;;;;;;1.70;73.15;100832.03;5031801;28;20046;-61
2022/12/12 11:42:00;;;;;;;19.02;9.93;;;;;;;1.73;73.14;100831.25;5033477;28;20045;-61